Emmanuel Tomasos — C6SS7 — position and weather

sailwx.info

Track history (hours):
 
Tides and Currents Weather Stations Pressure Air Temp Water Temp Dewpoint Dewpoint Depression Visibility Wind Speed Wind Dir Waves Ship Positions

Emmanuel Tomasos

Last reported at 2014-Sep-19 10:31 UTC. Time now 2014-Sep-20 04:00 UTC.
Position N 37°55' E 023°05'.

Length 181 m; draft 6.9 m.

Type: Tanker. MMSI: 311459000.

Date/timePositionNaut miles runAvg speedWind from/ knotsBaromVisibWave heightAir tempDewpointWater temp
2014-Sep-19 10:31N 37°55' E 023°05'14 3.4
2014-Sep-19 06:31N 37°51' E 023°22'1313.5
2014-Sep-19 05:33N 37°50' E 023°38'1313.2
2014-Sep-19 04:33N 37°39' E 023°46'5613.1
2014-Sep-19 00:18N 36°46' E 024°10'1013.5
2014-Sep-18 23:33N 36°37' E 024°14'1413.5
2014-Sep-18 22:33N 36°29' E 024°28'1313.4
2014-Sep-18 21:33N 36°22' E 024°42'1313.3
2014-Sep-18 20:33N 36°15' E 024°56'1313.3
2014-Sep-18 19:33N 36°08' E 025°10'1313.6
2014-Sep-18 18:33N 36°08' E 025°27'1313.3
2014-Sep-18 17:33N 36°08' E 025°43'33413.2
2014-Sep-17 16:17N 35°47' E 032°35'1313.2
2014-Sep-17 15:19N 35°47' E 032°51'  
2014-Sep-13 08:13N 34°50' E 034°30'  
Track history (hours):
 
Tides and Currents Weather Stations Pressure Air Temp Water Temp Dewpoint Dewpoint Depression Visibility Wind Speed Wind Dir Waves Ship Positions

Emmanuel Tomasos

Last reported at 2014-Sep-19 10:31 UTC. Time now 2014-Sep-20 04:00 UTC.
Position N 37°55' E 023°05'.

Length 181 m; draft 6.9 m.

Type: Tanker. MMSI: 311459000.

Date/timePositionNaut miles runAvg speedWind from/ knotsBaromVisibWave heightAir tempDewpointWater temp
2014-Sep-19 10:31N 37°55' E 023°05'14 3.4
2014-Sep-19 06:31N 37°51' E 023°22'1313.5
2014-Sep-19 05:33N 37°50' E 023°38'1313.2
2014-Sep-19 04:33N 37°39' E 023°46'5613.1
2014-Sep-19 00:18N 36°46' E 024°10'1013.5
2014-Sep-18 23:33N 36°37' E 024°14'1413.5
2014-Sep-18 22:33N 36°29' E 024°28'1313.4
2014-Sep-18 21:33N 36°22' E 024°42'1313.3
2014-Sep-18 20:33N 36°15' E 024°56'1313.3
2014-Sep-18 19:33N 36°08' E 025°10'1313.6
2014-Sep-18 18:33N 36°08' E 025°27'1313.3
2014-Sep-18 17:33N 36°08' E 025°43'33413.2
2014-Sep-17 16:17N 35°47' E 032°35'1313.2
2014-Sep-17 15:19N 35°47' E 032°51'  
2014-Sep-13 08:13N 34°50' E 034°30'  

Dump ship's entire track history